createdAt,value
2023-05-09T00:00:11.570Z,12.82
2023-05-09T00:02:42.262Z,12.75
2023-05-09T00:05:11.282Z,12.35
2023-05-09T00:07:39.654Z,12.55
2023-05-09T00:10:08.560Z,13.20
2023-05-09T00:12:37.993Z,12.23
2023-05-09T00:15:08.332Z,12.57
2023-05-09T00:17:38.700Z,12.95
2023-05-09T00:20:12.359Z,12.93
2023-05-09T00:22:41.723Z,14.10
2023-05-09T00:25:11.836Z,14.75
2023-05-09T00:27:41.369Z,14.43
2023-05-09T00:30:10.403Z,14.15
2023-05-09T00:32:40.206Z,14.98
2023-05-09T00:35:09.976Z,14.63
2023-05-09T00:37:38.461Z,15.40
2023-05-09T00:40:09.312Z,15.23
2023-05-09T00:42:38.191Z,15.82
2023-05-09T00:45:09.047Z,15.10
2023-05-09T00:47:37.506Z,14.97
2023-05-09T00:50:07.383Z,14.68
2023-05-09T00:52:35.773Z,14.52
2023-05-09T00:55:04.493Z,15.32
2023-05-09T00:57:33.375Z,14.05
2023-05-09T01:00:01.924Z,13.40
2023-05-09T01:02:32.198Z,13.63
2023-05-09T01:05:00.727Z,12.27
2023-05-09T01:07:47.828Z,13.00
2023-05-09T01:10:24.195Z,13.20
2023-05-09T01:12:59.932Z,11.80
2023-05-09T01:15:34.659Z,12.43
2023-05-09T01:18:10.805Z,12.60
2023-05-09T01:20:45.589Z,12.70
2023-05-09T01:23:39.138Z,12.80
2023-05-09T01:26:12.520Z,13.40
2023-05-09T01:29:06.314Z,13.82
2023-05-09T01:31:39.253Z,12.88
2023-05-09T01:34:07.926Z,12.80
2023-05-09T01:36:38.902Z,12.63
2023-05-09T01:39:08.672Z,12.80
2023-05-09T01:41:38.964Z,12.10
2023-05-09T01:44:11.092Z,12.35
2023-05-09T01:46:41.099Z,11.43
2023-05-09T01:49:10.003Z,11.48
2023-05-09T01:51:40.775Z,10.87
2023-05-09T01:54:12.868Z,11.52
2023-05-09T01:56:43.691Z,11.23
2023-05-09T01:59:16.135Z,12.05
2023-05-09T02:01:47.813Z,12.00
2023-05-09T02:04:18.221Z,11.27
2023-05-09T02:06:50.694Z,11.75
2023-05-09T02:09:19.876Z,12.27
2023-05-09T02:11:48.301Z,12.55
2023-05-09T02:14:16.773Z,12.27
2023-05-09T02:16:46.305Z,11.60
2023-05-09T02:19:14.710Z,11.52
2023-05-09T02:21:43.151Z,12.95
2023-05-09T02:24:12.477Z,12.20
2023-05-09T02:26:42.231Z,11.90
2023-05-09T02:29:11.755Z,12.00
2023-05-09T02:31:43.546Z,12.18
2023-05-09T02:34:14.270Z,12.18
2023-05-09T02:36:43.169Z,12.20
2023-05-09T02:39:11.873Z,12.00
2023-05-09T02:41:40.216Z,11.97
2023-05-09T02:44:08.570Z,12.95
2023-05-09T02:46:36.933Z,11.30
2023-05-09T02:49:05.252Z,11.80
2023-05-09T02:51:34.621Z,12.55
2023-05-09T02:54:03.467Z,11.70
2023-05-09T02:56:31.853Z,11.85
2023-05-09T02:59:00.179Z,11.98
2023-05-09T03:01:28.501Z,11.60
2023-05-09T03:03:56.998Z,11.68
2023-05-09T03:06:25.474Z,12.03
2023-05-09T03:08:54.877Z,12.18
2023-05-09T03:11:24.844Z,12.98
2023-05-09T03:13:53.314Z,12.55
2023-05-09T03:16:21.818Z,13.02
2023-05-09T03:18:51.640Z,12.50
2023-05-09T03:21:19.975Z,12.27
2023-05-09T03:23:48.460Z,12.70
2023-05-09T03:26:17.797Z,12.35
2023-05-09T03:28:46.721Z,12.70
2023-05-09T03:31:15.188Z,13.03
2023-05-09T03:33:44.539Z,12.05
2023-05-09T03:36:12.864Z,12.50
2023-05-09T03:38:43.803Z,12.48
2023-05-09T03:41:12.266Z,13.35
2023-05-09T03:43:42.244Z,13.20
2023-05-09T03:46:10.667Z,13.35
2023-05-09T03:48:39.137Z,13.55
2023-05-09T03:51:08.645Z,13.18
2023-05-09T03:53:40.624Z,13.32
2023-05-09T03:56:10.220Z,12.47
2023-05-09T03:58:47.323Z,12.48
2023-05-09T04:01:16.465Z,12.27
2023-05-09T04:03:47.438Z,12.57
2023-05-09T04:06:17.520Z,12.60
2023-05-09T04:08:46.247Z,12.00
2023-05-09T04:11:14.581Z,12.82
2023-05-09T04:13:45.902Z,12.85
2023-05-09T04:16:29.419Z,11.65
2023-05-09T04:18:57.916Z,12.65
2023-05-09T04:21:27.298Z,12.93
2023-05-09T04:23:59.455Z,11.90
2023-05-09T04:26:38.244Z,11.82
2023-05-09T04:29:09.252Z,13.48
2023-05-09T04:31:38.897Z,12.93
2023-05-09T04:34:08.836Z,12.30
2023-05-09T04:36:39.475Z,12.40
2023-05-09T04:39:10.362Z,13.23
2023-05-09T04:41:43.753Z,12.32
2023-05-09T04:44:12.134Z,13.05
2023-05-09T04:46:41.713Z,12.70
2023-05-09T04:49:10.143Z,12.05
2023-05-09T04:51:38.437Z,11.98
2023-05-09T04:54:06.845Z,10.93
2023-05-09T04:56:38.809Z,11.50
2023-05-09T04:59:07.274Z,11.57
2023-05-09T05:01:35.884Z,11.10
2023-05-09T05:04:05.814Z,11.38
2023-05-09T05:06:35.120Z,11.60
2023-05-09T05:09:03.845Z,11.88
2023-05-09T05:11:32.284Z,11.43
2023-05-09T05:14:00.857Z,11.23
2023-05-09T05:16:29.648Z,10.98
2023-05-09T05:18:58.400Z,11.13
2023-05-09T05:21:28.226Z,11.23
2023-05-09T05:23:56.732Z,11.50
2023-05-09T05:26:27.473Z,11.07
2023-05-09T05:28:57.197Z,11.00
2023-05-09T05:31:26.915Z,9.75
2023-05-09T05:33:55.303Z,11.50
2023-05-09T05:36:23.856Z,11.93
2023-05-09T05:38:53.153Z,12.73
2023-05-09T05:41:21.581Z,19.40
2023-05-09T05:43:53.463Z,16.63
2023-05-09T05:46:22.671Z,11.43
2023-05-09T05:48:53.924Z,10.50
2023-05-09T05:51:23.312Z,10.48
2023-05-09T05:53:57.508Z,9.63
2023-05-09T05:56:38.066Z,10.32
2023-05-09T05:59:14.155Z,10.77
2023-05-09T06:01:43.084Z,9.93
2023-05-09T06:04:11.629Z,10.43
2023-05-09T06:06:40.337Z,9.32
2023-05-09T06:09:09.734Z,9.88
2023-05-09T06:11:39.266Z,9.73
2023-05-09T06:14:07.607Z,9.67
2023-05-09T06:16:36.067Z,9.10
2023-05-09T06:19:04.516Z,8.93
2023-05-09T06:21:34.179Z,9.80
2023-05-09T06:24:10.242Z,9.90
2023-05-09T06:26:46.328Z,9.27
2023-05-09T06:29:16.077Z,10.07
2023-05-09T06:31:44.539Z,9.77
2023-05-09T06:34:12.886Z,9.50
2023-05-09T06:36:41.206Z,8.82
2023-05-09T06:39:09.660Z,9.13
2023-05-09T06:41:38.028Z,9.00
2023-05-09T06:44:07.703Z,8.95
2023-05-09T06:46:36.099Z,9.15
2023-05-09T06:49:06.041Z,8.05
2023-05-09T06:51:34.742Z,8.33
2023-05-09T06:54:03.132Z,8.63
2023-05-09T06:56:31.719Z,8.18
2023-05-09T06:59:00.039Z,7.97
2023-05-09T07:01:29.405Z,8.38
2023-05-09T07:03:59.145Z,7.90
2023-05-09T07:06:30.526Z,8.52
2023-05-09T07:08:59.053Z,7.63
2023-05-09T07:11:27.884Z,8.15
2023-05-09T07:13:56.330Z,7.95
2023-05-09T07:16:25.810Z,7.60
2023-05-09T07:18:59.111Z,7.90
2023-05-09T07:21:28.835Z,8.05
2023-05-09T07:24:00.292Z,8.30
2023-05-09T07:26:28.863Z,8.43
2023-05-09T07:28:58.914Z,8.77
2023-05-09T07:31:31.944Z,7.85
2023-05-09T07:34:01.743Z,8.38
2023-05-09T07:36:35.338Z,7.75
2023-05-09T07:39:05.043Z,8.65
2023-05-09T07:41:38.376Z,8.67
2023-05-09T07:44:09.997Z,8.25
2023-05-09T07:46:41.028Z,8.05
2023-05-09T07:49:10.795Z,8.25
2023-05-09T07:51:39.425Z,8.43
2023-05-09T07:54:10.260Z,8.90
2023-05-09T07:56:42.022Z,8.75
2023-05-09T07:59:10.798Z,8.88
2023-05-09T08:01:39.419Z,9.18
2023-05-09T08:04:09.169Z,9.52
2023-05-09T08:06:38.800Z,9.00
2023-05-09T08:09:07.285Z,9.02
2023-05-09T08:11:36.492Z,9.30
2023-05-09T08:14:05.083Z,9.32
2023-05-09T08:16:33.445Z,8.98
2023-05-09T08:19:01.896Z,9.13
2023-05-09T08:21:30.352Z,9.38
2023-05-09T08:24:01.038Z,9.63
2023-05-09T08:26:29.474Z,9.90
2023-05-09T08:28:57.833Z,10.93
2023-05-09T08:31:27.087Z,10.70
2023-05-09T08:33:55.499Z,10.05
2023-05-09T08:36:23.895Z,10.50
2023-05-09T08:38:52.264Z,10.70
2023-05-09T08:41:27.991Z,10.23
2023-05-09T08:43:56.488Z,11.60
2023-05-09T08:46:29.432Z,10.88
2023-05-09T08:48:58.883Z,11.23
2023-05-09T08:51:27.543Z,11.55
2023-05-09T08:53:56.043Z,10.68
2023-05-09T08:56:26.762Z,10.93
2023-05-09T08:58:56.570Z,11.15
2023-05-09T09:01:25.295Z,11.13
2023-05-09T09:03:53.878Z,11.65
2023-05-09T09:06:23.116Z,12.10
2023-05-09T09:08:57.692Z,11.77
2023-05-09T09:11:31.311Z,10.90
2023-05-09T09:14:02.859Z,11.55
2023-05-09T09:16:31.873Z,11.95
2023-05-09T09:19:00.499Z,12.85
2023-05-09T09:21:28.900Z,11.07
2023-05-09T09:23:57.481Z,12.40
2023-05-09T09:26:29.219Z,12.40
2023-05-09T09:28:58.970Z,11.27
2023-05-09T09:31:28.563Z,11.80
2023-05-09T09:34:01.307Z,11.07
2023-05-09T09:36:30.544Z,11.80
2023-05-09T09:39:01.371Z,11.07
2023-05-09T09:41:33.690Z,12.20
2023-05-09T09:44:09.383Z,11.90
2023-05-09T09:46:43.815Z,12.33
2023-05-09T09:49:12.267Z,11.38
2023-05-09T09:51:40.744Z,11.38
2023-05-09T09:54:09.891Z,11.23
2023-05-09T09:56:42.951Z,10.77
2023-05-09T09:59:13.880Z,10.70
2023-05-09T10:01:56.025Z,10.45
2023-05-09T10:04:25.588Z,10.63
2023-05-09T10:06:55.098Z,10.73
2023-05-09T10:09:24.120Z,9.48
2023-05-09T10:11:53.575Z,9.57
2023-05-09T10:14:24.242Z,10.90
2023-05-09T10:16:55.910Z,9.75
2023-05-09T10:19:26.399Z,10.07
2023-05-09T10:21:56.093Z,9.27
2023-05-09T10:24:29.779Z,10.47
2023-05-09T10:27:05.161Z,9.73
2023-05-09T10:29:37.589Z,48.65
2023-05-09T10:32:13.285Z,15.80
2023-05-09T10:34:47.735Z,12.10
2023-05-09T10:37:17.234Z,9.57
2023-05-09T10:39:46.024Z,10.00
2023-05-09T10:42:15.086Z,8.63
2023-05-09T10:44:44.913Z,7.57
2023-05-09T10:47:13.906Z,6.82
2023-05-09T10:49:42.709Z,7.33
2023-05-09T10:52:11.853Z,5.93
2023-05-09T10:54:40.340Z,6.35
2023-05-09T10:57:10.713Z,7.10
2023-05-09T10:59:41.253Z,6.68
2023-05-09T11:02:15.745Z,7.00
2023-05-09T11:04:44.327Z,7.93
2023-05-09T11:07:25.954Z,6.75
2023-05-09T11:09:54.522Z,6.57
2023-05-09T11:12:24.034Z,5.97
2023-05-09T11:14:53.929Z,6.80
2023-05-09T11:17:33.224Z,6.30
2023-05-09T11:20:05.587Z,5.63
2023-05-09T11:22:41.409Z,6.90
2023-05-09T11:25:10.814Z,6.68
2023-05-09T11:27:42.420Z,6.50
2023-05-09T11:30:14.554Z,6.00
2023-05-09T11:32:46.293Z,5.50
2023-05-09T11:35:16.258Z,5.45
2023-05-09T11:37:49.890Z,7.18
2023-05-09T11:40:19.469Z,6.43
2023-05-09T11:42:49.859Z,7.03
2023-05-09T11:45:18.630Z,6.85
2023-05-09T11:47:48.984Z,7.88
2023-05-09T11:50:20.002Z,7.45
2023-05-09T11:52:49.216Z,8.60
2023-05-09T11:55:19.831Z,7.70
2023-05-09T11:57:49.968Z,7.57
2023-05-09T12:00:19.219Z,8.52
2023-05-09T12:02:49.343Z,8.15
2023-05-09T12:05:19.277Z,7.97
2023-05-09T12:07:51.310Z,7.85
2023-05-09T12:10:22.800Z,7.00
2023-05-09T12:12:52.320Z,7.72
2023-05-09T12:15:21.495Z,7.63
2023-05-09T12:18:03.041Z,7.60
2023-05-09T12:20:44.775Z,8.57
2023-05-09T12:23:14.458Z,6.97
2023-05-09T12:25:51.412Z,7.85
2023-05-09T12:28:20.132Z,7.40
2023-05-09T12:30:48.645Z,7.60
2023-05-09T12:33:19.869Z,7.70
2023-05-09T12:35:48.586Z,8.02
2023-05-09T12:38:22.200Z,8.73
2023-05-09T12:40:50.915Z,8.15
2023-05-09T12:43:19.307Z,7.90
2023-05-09T12:45:47.697Z,7.47
2023-05-09T12:48:17.677Z,7.75
2023-05-09T12:50:48.746Z,8.02
2023-05-09T12:53:24.955Z,7.63
2023-05-09T12:55:56.988Z,8.20
2023-05-09T12:58:25.380Z,7.47
2023-05-09T13:00:56.150Z,7.30
2023-05-09T13:03:31.389Z,6.72
2023-05-09T13:06:00.624Z,8.20
2023-05-09T13:08:29.371Z,8.17
2023-05-09T13:11:12.037Z,8.45
2023-05-09T13:13:44.950Z,7.32
2023-05-09T13:16:15.034Z,8.32
2023-05-09T13:18:46.936Z,8.15
2023-05-09T13:21:15.779Z,8.33
2023-05-09T13:23:45.417Z,7.78
2023-05-09T13:26:13.894Z,7.13
2023-05-09T13:28:42.306Z,7.45
2023-05-09T13:31:10.819Z,8.05
2023-05-09T13:33:41.982Z,7.80
2023-05-09T13:36:11.547Z,7.47
2023-05-09T13:38:40.909Z,6.78
2023-05-09T13:41:09.624Z,6.78
2023-05-09T13:43:38.470Z,7.75
2023-05-09T13:46:06.838Z,7.20
2023-05-09T13:48:36.663Z,6.40
2023-05-09T13:51:06.325Z,6.70
2023-05-09T13:53:38.994Z,7.22
2023-05-09T13:56:09.459Z,7.38
2023-05-09T13:58:39.825Z,7.10
2023-05-09T14:01:22.249Z,6.03
2023-05-09T14:03:52.594Z,6.60
2023-05-09T14:06:21.180Z,6.53
2023-05-09T14:08:52.015Z,6.35
2023-05-09T14:11:20.688Z,6.23
2023-05-09T14:13:52.624Z,6.03
2023-05-09T14:16:21.978Z,6.25
2023-05-09T14:18:53.317Z,6.40
2023-05-09T14:21:22.382Z,6.43
2023-05-09T14:23:57.521Z,5.97
2023-05-09T14:26:26.780Z,6.20
2023-05-09T14:28:55.302Z,5.25
2023-05-09T14:31:23.935Z,5.22
2023-05-09T14:33:52.404Z,5.40
2023-05-09T14:36:20.812Z,4.63
2023-05-09T14:38:49.229Z,4.57
2023-05-09T14:41:20.901Z,4.95
2023-05-09T14:43:50.102Z,5.43
2023-05-09T14:46:18.785Z,5.30
2023-05-09T14:48:47.333Z,5.37
2023-05-09T14:51:15.896Z,4.72
2023-05-09T14:53:44.318Z,5.18
2023-05-09T14:56:13.185Z,4.75
2023-05-09T14:58:42.703Z,4.95
2023-05-09T15:01:11.085Z,4.57
2023-05-09T15:03:39.639Z,5.90
2023-05-09T15:06:08.259Z,4.60
2023-05-09T15:08:36.949Z,5.00
2023-05-09T15:11:05.327Z,4.65
2023-05-09T15:13:33.804Z,4.70
2023-05-09T15:16:03.193Z,4.07
2023-05-09T15:18:31.623Z,4.45
2023-05-09T15:20:59.953Z,4.88
2023-05-09T15:23:28.329Z,4.38
2023-05-09T15:25:56.746Z,4.50
2023-05-09T15:28:25.101Z,4.47
2023-05-09T15:30:53.706Z,4.82
2023-05-09T15:33:23.317Z,4.65
2023-05-09T15:35:51.351Z,4.07
2023-05-09T15:38:19.352Z,4.00
2023-05-09T15:40:47.760Z,4.57
2023-05-09T15:43:16.223Z,4.13
2023-05-09T15:45:45.779Z,4.60
2023-05-09T15:48:14.746Z,4.13
2023-05-09T15:50:45.327Z,4.07
2023-05-09T15:53:15.492Z,4.70
2023-05-09T15:55:44.693Z,4.18
2023-05-09T15:58:14.100Z,4.22
2023-05-09T16:00:42.211Z,4.30
2023-05-09T16:03:10.654Z,4.10
2023-05-09T16:05:41.001Z,4.80
2023-05-09T16:08:10.541Z,4.53
2023-05-09T16:10:38.657Z,4.47
2023-05-09T16:13:06.866Z,4.78
2023-05-09T16:15:35.386Z,4.70
2023-05-09T16:18:03.829Z,5.10
2023-05-09T16:20:32.183Z,4.75
2023-05-09T16:23:00.733Z,5.05
2023-05-09T16:25:30.159Z,4.90
2023-05-09T16:27:58.777Z,5.73
2023-05-09T16:30:27.169Z,5.03
2023-05-09T16:32:55.586Z,4.88
2023-05-09T16:35:25.238Z,5.13
2023-05-09T16:37:53.632Z,4.88
2023-05-09T16:40:22.132Z,4.90
2023-05-09T16:42:51.770Z,4.53
2023-05-09T16:45:20.346Z,5.35
2023-05-09T16:47:53.286Z,5.20
2023-05-09T16:50:21.939Z,5.18
2023-05-09T16:52:50.501Z,5.23
2023-05-09T16:55:18.741Z,5.50
2023-05-09T16:57:47.305Z,5.55
2023-05-09T17:00:20.716Z,4.72
2023-05-09T17:02:49.066Z,4.93
2023-05-09T17:05:17.518Z,5.47
2023-05-09T17:07:45.830Z,5.25
2023-05-09T17:10:14.537Z,5.07
2023-05-09T17:12:43.283Z,4.85
2023-05-09T17:15:16.079Z,5.10
2023-05-09T17:17:44.583Z,4.83
2023-05-09T17:20:13.363Z,5.30
2023-05-09T17:22:41.829Z,5.45
2023-05-09T17:25:10.831Z,5.50
2023-05-09T17:27:39.732Z,5.18
2023-05-09T17:30:09.414Z,5.23
2023-05-09T17:32:38.762Z,5.53
2023-05-09T17:35:07.891Z,5.22
2023-05-09T17:37:36.256Z,5.60
2023-05-09T17:40:05.265Z,5.50
2023-05-09T17:42:33.735Z,5.17
2023-05-09T17:45:02.107Z,5.72
2023-05-09T17:47:30.569Z,5.32
2023-05-09T17:50:00.003Z,5.43
2023-05-09T17:52:28.362Z,5.53
2023-05-09T17:54:56.794Z,5.47
2023-05-09T17:57:25.002Z,5.57
2023-05-09T17:59:53.428Z,5.28
2023-05-09T18:02:28.607Z,6.03
2023-05-09T18:04:57.119Z,5.53
2023-05-09T18:07:28.979Z,5.57
2023-05-09T18:09:58.590Z,5.57
2023-05-09T18:12:31.195Z,6.07
2023-05-09T18:15:01.495Z,5.68
2023-05-09T18:17:34.564Z,5.97
2023-05-09T18:20:03.176Z,6.17
2023-05-09T18:22:32.606Z,5.65
2023-05-09T18:25:01.007Z,6.72
2023-05-09T18:27:29.360Z,6.78
2023-05-09T18:29:59.686Z,6.75
2023-05-09T18:32:29.831Z,6.40
2023-05-09T18:34:58.276Z,6.07
2023-05-09T18:37:27.256Z,6.35
2023-05-09T18:39:59.927Z,7.07
2023-05-09T18:42:29.148Z,7.00
2023-05-09T18:44:57.731Z,6.50
2023-05-09T18:47:27.626Z,6.78
2023-05-09T18:49:56.289Z,7.18
2023-05-09T18:52:27.894Z,7.05
2023-05-09T18:54:57.372Z,7.35
2023-05-09T18:57:26.121Z,6.77
2023-05-09T18:59:57.518Z,6.68
2023-05-09T19:02:30.221Z,7.05
2023-05-09T19:05:07.253Z,7.03
2023-05-09T19:07:41.850Z,7.07
2023-05-09T19:10:13.415Z,7.20
2023-05-09T19:12:42.335Z,7.20
2023-05-09T19:15:12.587Z,7.53
2023-05-09T19:17:41.174Z,7.00
2023-05-09T19:20:10.461Z,7.68
2023-05-09T19:22:41.162Z,7.40
2023-05-09T19:25:16.247Z,6.88
2023-05-09T19:27:48.128Z,6.72
2023-05-09T19:30:17.116Z,7.07
2023-05-09T19:32:45.979Z,7.10
2023-05-09T19:35:17.456Z,7.23
2023-05-09T19:37:45.903Z,7.20
2023-05-09T19:40:16.161Z,7.07
2023-05-09T19:42:45.735Z,6.75
2023-05-09T19:45:14.225Z,6.35
2023-05-09T19:47:43.023Z,6.80
2023-05-09T19:50:11.824Z,31.48
2023-05-09T19:52:40.380Z,18.58
2023-05-09T19:55:09.389Z,8.40
2023-05-09T19:57:37.950Z,8.65
2023-05-09T20:00:08.807Z,10.80
2023-05-09T20:02:37.270Z,10.20
2023-05-09T20:05:05.968Z,6.75
2023-05-09T20:07:34.453Z,65.70
2023-05-09T20:10:02.847Z,16.75
2023-05-09T20:12:31.343Z,40.83
2023-05-09T20:14:59.993Z,30.52
2023-05-09T20:17:29.685Z,44.03
2023-05-09T20:19:58.732Z,11.15
2023-05-09T20:22:27.294Z,6.30
2023-05-09T20:24:55.950Z,7.87
2023-05-09T20:27:27.462Z,6.95
2023-05-09T20:29:56.524Z,5.82
2023-05-09T20:32:25.383Z,6.00
2023-05-09T20:34:59.932Z,5.60
2023-05-09T20:37:28.365Z,4.60
2023-05-09T20:39:56.763Z,3.97
2023-05-09T20:42:25.717Z,2.65
2023-05-09T20:44:55.135Z,2.35
2023-05-09T20:47:23.650Z,2.75
2023-05-09T20:49:52.152Z,2.00
2023-05-09T20:52:21.668Z,7.15
2023-05-09T20:54:50.215Z,3.70
2023-05-09T20:57:18.834Z,3.15
2023-05-09T20:59:47.339Z,3.30
2023-05-09T21:02:15.826Z,2.60
2023-05-09T21:04:44.277Z,1.90
2023-05-09T21:07:13.013Z,2.30
2023-05-09T21:09:42.501Z,0.90
2023-05-09T21:12:11.352Z,2.22
2023-05-09T21:14:39.897Z,1.00
2023-05-09T21:17:10.106Z,1.20
2023-05-09T21:19:38.566Z,1.40
2023-05-09T21:22:06.964Z,1.00
2023-05-09T21:24:35.472Z,7.65
2023-05-09T21:27:05.383Z,1.90
2023-05-09T21:29:34.107Z,4.63
2023-05-09T21:32:02.600Z,5.90
2023-05-09T21:34:31.114Z,1.40
2023-05-09T21:36:59.557Z,1.10
2023-05-09T21:39:27.989Z,1.20
2023-05-09T21:41:56.636Z,1.45
2023-05-09T21:44:26.351Z,1.10
2023-05-09T21:46:54.929Z,1.10
2023-05-09T21:49:23.423Z,1.25
2023-05-09T21:51:51.832Z,1.10
2023-05-09T21:54:20.883Z,1.20
2023-05-09T21:56:49.313Z,1.23
2023-05-09T21:59:20.815Z,1.52
2023-05-09T22:01:50.637Z,1.40
2023-05-09T22:04:19.048Z,1.40
2023-05-09T22:06:47.522Z,1.30
2023-05-09T22:09:16.095Z,1.30
2023-05-09T22:11:44.888Z,1.23
2023-05-09T22:14:13.492Z,1.60
2023-05-09T22:16:42.433Z,1.27
2023-05-09T22:19:12.126Z,1.20
2023-05-09T22:21:40.535Z,1.20
2023-05-09T22:24:09.259Z,1.30
2023-05-09T22:26:37.675Z,1.20
2023-05-09T22:29:06.047Z,1.20
2023-05-09T22:31:34.445Z,1.05
2023-05-09T22:34:04.203Z,1.10
2023-05-09T22:36:33.710Z,1.20
2023-05-09T22:39:02.281Z,1.10
2023-05-09T22:41:30.773Z,1.00
2023-05-09T22:43:59.479Z,1.40
2023-05-09T22:46:28.279Z,1.40
2023-05-09T22:48:56.752Z,1.00
2023-05-09T22:51:25.125Z,1.10
2023-05-09T22:53:54.512Z,0.97
2023-05-09T22:56:23.196Z,1.25
2023-05-09T22:59:01.458Z,1.45
2023-05-09T23:01:29.897Z,1.27
2023-05-09T23:03:58.413Z,1.40
2023-05-09T23:06:26.919Z,1.40
2023-05-09T23:08:56.461Z,1.27
2023-05-09T23:11:25.635Z,1.50
2023-05-09T23:13:53.974Z,1.48
2023-05-09T23:16:22.358Z,1.50
2023-05-09T23:18:50.708Z,1.33
2023-05-09T23:21:19.146Z,1.13
2023-05-09T23:23:47.558Z,1.30
2023-05-09T23:26:16.942Z,2.33
2023-05-09T23:28:45.325Z,1.33
2023-05-09T23:31:13.958Z,1.40
2023-05-09T23:33:42.353Z,1.30
2023-05-09T23:36:11.132Z,1.35
2023-05-09T23:38:39.508Z,1.60
2023-05-09T23:41:07.610Z,1.23
2023-05-09T23:43:37.343Z,1.70
2023-05-09T23:46:05.752Z,1.65
2023-05-09T23:48:34.212Z,1.45
2023-05-09T23:51:02.586Z,1.45
2023-05-09T23:53:32.164Z,1.20
2023-05-09T23:56:00.470Z,1.30
2023-05-09T23:58:28.990Z,1.40
